sensor_id;sensor_type;location;lat;lon;timestamp;temperature;humidity
23748;DHT22;12054;53.662;10.126;2024-01-15T00:01:17;1.90;99.90
23748;DHT22;12054;53.662;10.126;2024-01-15T00:03:42;1.90;99.90
23748;DHT22;12054;53.662;10.126;2024-01-15T00:06:08;1.90;99.90
23748;DHT22;12054;53.662;10.126;2024-01-15T00:08:34;1.90;99.90
23748;DHT22;12054;53.662;10.126;2024-01-15T00:10:59;1.90;99.90
23748;DHT22;12054;53.662;10.126;2024-01-15T00:13:25;2.00;99.90
23748;DHT22;12054;53.662;10.126;2024-01-15T00:15:50;2.00;99.90
23748;DHT22;12054;53.662;10.126;2024-01-15T00:18:16;2.00;99.90
23748;DHT22;12054;53.662;10.126;2024-01-15T00:20:41;2.00;99.90
23748;DHT22;12054;53.662;10.126;2024-01-15T00:23:07;2.00;99.90
23748;DHT22;12054;53.662;10.126;2024-01-15T00:25:32;2.00;99.90
23748;DHT22;12054;53.662;10.126;2024-01-15T00:27:58;2.00;99.90
23748;DHT22;12054;53.662;10.126;2024-01-15T00:30:23;2.00;99.90
23748;DHT22;12054;53.662;10.126;2024-01-15T00:32:49;2.00;99.90
23748;DHT22;12054;53.662;10.126;2024-01-15T00:35:14;2.00;99.90
23748;DHT22;12054;53.662;10.126;2024-01-15T00:37:40;2.00;99.90
23748;DHT22;12054;53.662;10.126;2024-01-15T00:40:06;2.00;99.90
23748;DHT22;12054;53.662;10.126;2024-01-15T00:42:33;2.00;99.90
23748;DHT22;12054;53.662;10.126;2024-01-15T00:44:59;2.00;99.90
23748;DHT22;12054;53.662;10.126;2024-01-15T00:47:24;2.00;99.90
23748;DHT22;12054;53.662;10.126;2024-01-15T00:49:50;2.00;99.90
23748;DHT22;12054;53.662;10.126;2024-01-15T00:52:15;2.00;99.90
23748;DHT22;12054;53.662;10.126;2024-01-15T00:54:41;2.00;99.90
23748;DHT22;12054;53.662;10.126;2024-01-15T00:57:06;2.00;99.90
23748;DHT22;12054;53.662;10.126;2024-01-15T00:59:31;2.00;99.90
23748;DHT22;12054;53.662;10.126;2024-01-15T01:01:57;2.00;99.90
23748;DHT22;12054;53.662;10.126;2024-01-15T01:04:22;2.00;99.90
23748;DHT22;12054;53.662;10.126;2024-01-15T01:06:48;2.00;99.90
23748;DHT22;12054;53.662;10.126;2024-01-15T01:09:13;2.00;99.90
23748;DHT22;12054;53.662;10.126;2024-01-15T01:11:39;2.00;99.90
23748;DHT22;12054;53.662;10.126;2024-01-15T01:14:05;2.00;99.90
23748;DHT22;12054;53.662;10.126;2024-01-15T01:16:31;2.10;99.90
23748;DHT22;12054;53.662;10.126;2024-01-15T01:18:56;2.10;99.90
23748;DHT22;12054;53.662;10.126;2024-01-15T01:21:22;2.00;99.90
23748;DHT22;12054;53.662;10.126;2024-01-15T01:23:47;2.10;99.90
23748;DHT22;12054;53.662;10.126;2024-01-15T01:26:16;2.10;99.90
23748;DHT22;12054;53.662;10.126;2024-01-15T01:28:42;2.10;99.90
23748;DHT22;12054;53.662;10.126;2024-01-15T01:31:07;2.10;99.90
23748;DHT22;12054;53.662;10.126;2024-01-15T01:33:33;2.10;99.90
23748;DHT22;12054;53.662;10.126;2024-01-15T01:35:59;2.10;99.90
23748;DHT22;12054;53.662;10.126;2024-01-15T01:38:24;2.10;99.90
23748;DHT22;12054;53.662;10.126;2024-01-15T01:40:50;2.00;99.90
23748;DHT22;12054;53.662;10.126;2024-01-15T01:43:15;2.00;99.90
23748;DHT22;12054;53.662;10.126;2024-01-15T01:45:41;2.00;99.90
23748;DHT22;12054;53.662;10.126;2024-01-15T01:48:07;2.00;99.90
23748;DHT22;12054;53.662;10.126;2024-01-15T01:50:32;2.00;99.90
23748;DHT22;12054;53.662;10.126;2024-01-15T01:52:59;2.00;99.90
23748;DHT22;12054;53.662;10.126;2024-01-15T01:55:27;2.00;99.90
23748;DHT22;12054;53.662;10.126;2024-01-15T01:57:55;2.00;99.90
23748;DHT22;12054;53.662;10.126;2024-01-15T02:00:20;2.00;99.90
23748;DHT22;12054;53.662;10.126;2024-01-15T02:02:46;2.00;99.90
23748;DHT22;12054;53.662;10.126;2024-01-15T02:05:13;2.20;99.90
23748;DHT22;12054;53.662;10.126;2024-01-15T02:07:39;2.10;99.90
23748;DHT22;12054;53.662;10.126;2024-01-15T02:10:06;2.10;99.90
23748;DHT22;12054;53.662;10.126;2024-01-15T02:12:32;2.10;99.90
23748;DHT22;12054;53.662;10.126;2024-01-15T02:14:57;2.10;99.90
23748;DHT22;12054;53.662;10.126;2024-01-15T02:17:23;2.10;99.90
23748;DHT22;12054;53.662;10.126;2024-01-15T02:19:49;2.10;99.90
23748;DHT22;12054;53.662;10.126;2024-01-15T02:22:15;2.10;99.90
23748;DHT22;12054;53.662;10.126;2024-01-15T02:24:40;2.10;99.90
23748;DHT22;12054;53.662;10.126;2024-01-15T02:27:06;2.10;99.90
23748;DHT22;12054;53.662;10.126;2024-01-15T02:29:32;2.20;99.90
23748;DHT22;12054;53.662;10.126;2024-01-15T02:31:57;2.20;99.90
23748;DHT22;12054;53.662;10.126;2024-01-15T02:34:23;2.10;99.90
23748;DHT22;12054;53.662;10.126;2024-01-15T02:36:48;2.20;99.90
23748;DHT22;12054;53.662;10.126;2024-01-15T02:39:13;2.20;99.90
23748;DHT22;12054;53.662;10.126;2024-01-15T02:41:39;2.20;99.90
23748;DHT22;12054;53.662;10.126;2024-01-15T02:44:04;2.20;99.90
23748;DHT22;12054;53.662;10.126;2024-01-15T02:46:30;2.20;99.90
23748;DHT22;12054;53.662;10.126;2024-01-15T02:48:55;2.10;99.90
23748;DHT22;12054;53.662;10.126;2024-01-15T02:51:21;2.10;99.90
23748;DHT22;12054;53.662;10.126;2024-01-15T02:53:48;2.10;99.90
23748;DHT22;12054;53.662;10.126;2024-01-15T02:56:14;2.10;99.90
23748;DHT22;12054;53.662;10.126;2024-01-15T02:58:40;2.10;99.90
23748;DHT22;12054;53.662;10.126;2024-01-15T03:01:05;2.10;99.90
23748;DHT22;12054;53.662;10.126;2024-01-15T03:03:30;2.20;99.90
23748;DHT22;12054;53.662;10.126;2024-01-15T03:05:58;2.20;99.90
23748;DHT22;12054;53.662;10.126;2024-01-15T03:08:23;2.10;99.90
23748;DHT22;12054;53.662;10.126;2024-01-15T03:10:49;2.10;99.90
23748;DHT22;12054;53.662;10.126;2024-01-15T03:13:14;2.10;99.90
23748;DHT22;12054;53.662;10.126;2024-01-15T03:15:40;2.10;99.90
23748;DHT22;12054;53.662;10.126;2024-01-15T03:18:05;2.10;99.90
23748;DHT22;12054;53.662;10.126;2024-01-15T03:20:31;2.10;99.90
23748;DHT22;12054;53.662;10.126;2024-01-15T03:22:56;2.10;99.90
23748;DHT22;12054;53.662;10.126;2024-01-15T03:25:22;2.10;99.90
23748;DHT22;12054;53.662;10.126;2024-01-15T03:27:47;2.10;99.90
23748;DHT22;12054;53.662;10.126;2024-01-15T03:30:13;2.10;99.90
23748;DHT22;12054;53.662;10.126;2024-01-15T03:32:39;2.10;99.90
23748;DHT22;12054;53.662;10.126;2024-01-15T03:35:04;2.10;99.90
23748;DHT22;12054;53.662;10.126;2024-01-15T03:37:30;2.10;99.90
23748;DHT22;12054;53.662;10.126;2024-01-15T03:39:55;2.10;99.90
23748;DHT22;12054;53.662;10.126;2024-01-15T03:42:21;2.10;99.90
23748;DHT22;12054;53.662;10.126;2024-01-15T03:44:47;2.10;99.90
23748;DHT22;12054;53.662;10.126;2024-01-15T03:47:12;2.10;99.90
23748;DHT22;12054;53.662;10.126;2024-01-15T03:49:38;2.10;99.90
23748;DHT22;12054;53.662;10.126;2024-01-15T03:52:04;2.10;99.90
23748;DHT22;12054;53.662;10.126;2024-01-15T03:54:29;2.10;99.90
23748;DHT22;12054;53.662;10.126;2024-01-15T03:56:55;2.10;99.90
23748;DHT22;12054;53.662;10.126;2024-01-15T03:59:20;2.10;99.90
23748;DHT22;12054;53.662;10.126;2024-01-15T04:01:49;2.10;99.90
23748;DHT22;12054;53.662;10.126;2024-01-15T04:04:16;2.20;99.90
23748;DHT22;12054;53.662;10.126;2024-01-15T04:06:41;2.10;99.90
23748;DHT22;12054;53.662;10.126;2024-01-15T04:09:07;2.10;99.90
23748;DHT22;12054;53.662;10.126;2024-01-15T04:11:32;2.20;99.90
23748;DHT22;12054;53.662;10.126;2024-01-15T04:13:58;2.20;99.90
23748;DHT22;12054;53.662;10.126;2024-01-15T04:16:23;2.20;99.90
23748;DHT22;12054;53.662;10.126;2024-01-15T04:18:49;2.20;99.90
23748;DHT22;12054;53.662;10.126;2024-01-15T04:21:14;2.20;99.90
23748;DHT22;12054;53.662;10.126;2024-01-15T04:23:42;2.20;99.90
23748;DHT22;12054;53.662;10.126;2024-01-15T04:26:07;2.20;99.90
23748;DHT22;12054;53.662;10.126;2024-01-15T04:28:32;2.20;99.90
23748;DHT22;12054;53.662;10.126;2024-01-15T04:30:58;2.20;99.90
23748;DHT22;12054;53.662;10.126;2024-01-15T04:33:23;2.20;99.90
23748;DHT22;12054;53.662;10.126;2024-01-15T04:35:49;2.20;99.90
23748;DHT22;12054;53.662;10.126;2024-01-15T04:38:15;2.20;99.90
23748;DHT22;12054;53.662;10.126;2024-01-15T04:40:40;2.20;99.90
23748;DHT22;12054;53.662;10.126;2024-01-15T04:43:06;2.20;99.90
23748;DHT22;12054;53.662;10.126;2024-01-15T04:45:31;2.20;99.90
23748;DHT22;12054;53.662;10.126;2024-01-15T04:47:57;2.20;99.90
23748;DHT22;12054;53.662;10.126;2024-01-15T04:50:23;2.20;99.90
23748;DHT22;12054;53.662;10.126;2024-01-15T04:52:49;2.20;99.90
23748;DHT22;12054;53.662;10.126;2024-01-15T04:55:15;2.20;99.90
23748;DHT22;12054;53.662;10.126;2024-01-15T04:57:41;2.20;99.90
23748;DHT22;12054;53.662;10.126;2024-01-15T05:00:07;2.20;99.90
23748;DHT22;12054;53.662;10.126;2024-01-15T05:02:32;2.20;99.90
23748;DHT22;12054;53.662;10.126;2024-01-15T05:04:58;2.20;99.90
23748;DHT22;12054;53.662;10.126;2024-01-15T05:07:23;2.20;99.90
23748;DHT22;12054;53.662;10.126;2024-01-15T05:09:49;2.20;99.90
23748;DHT22;12054;53.662;10.126;2024-01-15T05:12:14;2.20;99.90
23748;DHT22;12054;53.662;10.126;2024-01-15T05:14:40;2.20;99.90
23748;DHT22;12054;53.662;10.126;2024-01-15T05:17:05;2.20;99.90
23748;DHT22;12054;53.662;10.126;2024-01-15T05:19:31;2.20;99.90
23748;DHT22;12054;53.662;10.126;2024-01-15T05:21:56;2.20;99.90
23748;DHT22;12054;53.662;10.126;2024-01-15T05:24:22;2.20;99.90
23748;DHT22;12054;53.662;10.126;2024-01-15T05:26:47;2.20;99.90
23748;DHT22;12054;53.662;10.126;2024-01-15T05:29:13;2.30;99.90
23748;DHT22;12054;53.662;10.126;2024-01-15T05:31:38;2.20;99.90
23748;DHT22;12054;53.662;10.126;2024-01-15T05:34:04;2.20;99.90
23748;DHT22;12054;53.662;10.126;2024-01-15T05:36:29;2.30;99.90
23748;DHT22;12054;53.662;10.126;2024-01-15T05:38:55;2.30;99.90
23748;DHT22;12054;53.662;10.126;2024-01-15T05:41:20;2.30;99.90
23748;DHT22;12054;53.662;10.126;2024-01-15T05:43:46;2.30;99.90
23748;DHT22;12054;53.662;10.126;2024-01-15T05:46:11;2.30;99.90
23748;DHT22;12054;53.662;10.126;2024-01-15T05:48:36;2.30;99.90
23748;DHT22;12054;53.662;10.126;2024-01-15T05:51:02;2.30;99.90
23748;DHT22;12054;53.662;10.126;2024-01-15T05:53:28;2.30;99.90
23748;DHT22;12054;53.662;10.126;2024-01-15T05:55:53;2.30;99.90
23748;DHT22;12054;53.662;10.126;2024-01-15T05:58:21;2.30;99.90
23748;DHT22;12054;53.662;10.126;2024-01-15T06:00:46;2.30;99.90
23748;DHT22;12054;53.662;10.126;2024-01-15T06:03:13;2.30;99.90
23748;DHT22;12054;53.662;10.126;2024-01-15T06:05:38;2.30;99.90
23748;DHT22;12054;53.662;10.126;2024-01-15T06:08:05;2.40;99.90
23748;DHT22;12054;53.662;10.126;2024-01-15T06:10:30;2.30;99.90
23748;DHT22;12054;53.662;10.126;2024-01-15T06:12:56;2.40;99.90
23748;DHT22;12054;53.662;10.126;2024-01-15T06:15:21;2.40;99.90
23748;DHT22;12054;53.662;10.126;2024-01-15T06:17:47;2.40;99.90
23748;DHT22;12054;53.662;10.126;2024-01-15T06:20:12;2.40;99.90
23748;DHT22;12054;53.662;10.126;2024-01-15T06:22:38;2.40;99.90
23748;DHT22;12054;53.662;10.126;2024-01-15T06:25:06;2.40;99.90
23748;DHT22;12054;53.662;10.126;2024-01-15T06:27:32;2.40;99.90
23748;DHT22;12054;53.662;10.126;2024-01-15T06:29:57;2.30;99.90
23748;DHT22;12054;53.662;10.126;2024-01-15T06:32:23;2.30;99.90
23748;DHT22;12054;53.662;10.126;2024-01-15T06:34:48;2.30;99.90
23748;DHT22;12054;53.662;10.126;2024-01-15T06:37:14;2.30;99.90
23748;DHT22;12054;53.662;10.126;2024-01-15T06:39:39;2.30;99.90
23748;DHT22;12054;53.662;10.126;2024-01-15T06:42:05;2.30;99.90
23748;DHT22;12054;53.662;10.126;2024-01-15T06:44:30;2.30;99.90
23748;DHT22;12054;53.662;10.126;2024-01-15T06:46:56;2.30;99.90
23748;DHT22;12054;53.662;10.126;2024-01-15T06:49:25;2.30;99.90
23748;DHT22;12054;53.662;10.126;2024-01-15T06:51:50;2.30;99.90
23748;DHT22;12054;53.662;10.126;2024-01-15T06:54:16;2.30;99.90
23748;DHT22;12054;53.662;10.126;2024-01-15T06:56:41;2.30;99.90
23748;DHT22;12054;53.662;10.126;2024-01-15T06:59:06;2.30;99.90
23748;DHT22;12054;53.662;10.126;2024-01-15T07:01:32;2.30;99.90
23748;DHT22;12054;53.662;10.126;2024-01-15T07:03:57;2.30;99.90
23748;DHT22;12054;53.662;10.126;2024-01-15T07:06:23;2.30;99.90
23748;DHT22;12054;53.662;10.126;2024-01-15T07:08:49;2.30;99.90
23748;DHT22;12054;53.662;10.126;2024-01-15T07:11:15;2.30;99.90
23748;DHT22;12054;53.662;10.126;2024-01-15T07:13:40;2.30;99.90
23748;DHT22;12054;53.662;10.126;2024-01-15T07:16:06;2.30;99.90
23748;DHT22;12054;53.662;10.126;2024-01-15T07:18:32;2.40;99.90
23748;DHT22;12054;53.662;10.126;2024-01-15T07:20:58;2.30;99.90
23748;DHT22;12054;53.662;10.126;2024-01-15T07:23:24;2.30;99.90
23748;DHT22;12054;53.662;10.126;2024-01-15T07:25:50;2.30;99.90
23748;DHT22;12054;53.662;10.126;2024-01-15T07:28:15;2.30;99.90
23748;DHT22;12054;53.662;10.126;2024-01-15T07:30:41;2.30;99.90
23748;DHT22;12054;53.662;10.126;2024-01-15T07:33:06;2.30;99.90
23748;DHT22;12054;53.662;10.126;2024-01-15T07:35:32;2.30;99.90
23748;DHT22;12054;53.662;10.126;2024-01-15T07:37:57;2.30;99.90
23748;DHT22;12054;53.662;10.126;2024-01-15T07:40:23;2.30;99.90
23748;DHT22;12054;53.662;10.126;2024-01-15T07:42:50;2.40;99.90
23748;DHT22;12054;53.662;10.126;2024-01-15T07:45:15;2.40;99.90
23748;DHT22;12054;53.662;10.126;2024-01-15T07:47:41;2.30;99.90
23748;DHT22;12054;53.662;10.126;2024-01-15T07:50:07;2.40;99.90
23748;DHT22;12054;53.662;10.126;2024-01-15T07:52:32;2.40;99.90
23748;DHT22;12054;53.662;10.126;2024-01-15T07:54:58;2.40;99.90
23748;DHT22;12054;53.662;10.126;2024-01-15T07:57:28;2.40;99.90
23748;DHT22;12054;53.662;10.126;2024-01-15T07:59:54;2.40;99.90
23748;DHT22;12054;53.662;10.126;2024-01-15T08:02:19;2.40;99.90
23748;DHT22;12054;53.662;10.126;2024-01-15T08:04:45;2.40;99.90
23748;DHT22;12054;53.662;10.126;2024-01-15T08:07:11;2.40;99.90
23748;DHT22;12054;53.662;10.126;2024-01-15T08:09:36;2.40;99.90
23748;DHT22;12054;53.662;10.126;2024-01-15T08:12:02;2.40;99.90
23748;DHT22;12054;53.662;10.126;2024-01-15T08:14:28;2.40;99.90
23748;DHT22;12054;53.662;10.126;2024-01-15T08:16:53;2.40;99.90
23748;DHT22;12054;53.662;10.126;2024-01-15T08:19:19;2.40;99.90
23748;DHT22;12054;53.662;10.126;2024-01-15T08:21:45;2.40;99.90
23748;DHT22;12054;53.662;10.126;2024-01-15T08:24:11;2.40;99.90
23748;DHT22;12054;53.662;10.126;2024-01-15T08:26:36;2.50;99.90
23748;DHT22;12054;53.662;10.126;2024-01-15T08:29:02;2.50;99.90
23748;DHT22;12054;53.662;10.126;2024-01-15T08:31:27;2.50;99.90
23748;DHT22;12054;53.662;10.126;2024-01-15T08:33:53;2.50;99.90
23748;DHT22;12054;53.662;10.126;2024-01-15T08:36:19;2.50;99.90
23748;DHT22;12054;53.662;10.126;2024-01-15T08:38:44;2.40;99.90
23748;DHT22;12054;53.662;10.126;2024-01-15T08:41:10;2.50;99.90
23748;DHT22;12054;53.662;10.126;2024-01-15T08:43:36;2.50;99.90
23748;DHT22;12054;53.662;10.126;2024-01-15T08:46:02;2.50;99.90
23748;DHT22;12054;53.662;10.126;2024-01-15T08:48:27;2.50;99.90
23748;DHT22;12054;53.662;10.126;2024-01-15T08:50:54;2.50;99.90
23748;DHT22;12054;53.662;10.126;2024-01-15T08:53:20;2.50;99.90
23748;DHT22;12054;53.662;10.126;2024-01-15T08:55:45;2.50;99.90
23748;DHT22;12054;53.662;10.126;2024-01-15T08:58:11;2.50;99.90
23748;DHT22;12054;53.662;10.126;2024-01-15T09:00:36;2.50;99.90
23748;DHT22;12054;53.662;10.126;2024-01-15T09:03:02;2.50;99.90
23748;DHT22;12054;53.662;10.126;2024-01-15T09:05:28;2.50;99.90
23748;DHT22;12054;53.662;10.126;2024-01-15T09:07:54;2.60;99.90
23748;DHT22;12054;53.662;10.126;2024-01-15T09:10:20;2.50;99.90
23748;DHT22;12054;53.662;10.126;2024-01-15T09:12:46;2.50;99.90
23748;DHT22;12054;53.662;10.126;2024-01-15T09:15:11;2.50;99.90
23748;DHT22;12054;53.662;10.126;2024-01-15T09:17:37;2.50;99.90
23748;DHT22;12054;53.662;10.126;2024-01-15T09:20:03;2.50;99.90
23748;DHT22;12054;53.662;10.126;2024-01-15T09:22:31;2.50;99.90
23748;DHT22;12054;53.662;10.126;2024-01-15T09:24:56;2.40;99.90
23748;DHT22;12054;53.662;10.126;2024-01-15T09:27:22;2.40;99.90
23748;DHT22;12054;53.662;10.126;2024-01-15T09:29:48;2.40;99.90
23748;DHT22;12054;53.662;10.126;2024-01-15T09:32:13;2.40;99.90
23748;DHT22;12054;53.662;10.126;2024-01-15T09:34:39;2.40;99.90
23748;DHT22;12054;53.662;10.126;2024-01-15T09:37:05;2.40;99.90
23748;DHT22;12054;53.662;10.126;2024-01-15T09:39:30;2.40;99.90
23748;DHT22;12054;53.662;10.126;2024-01-15T09:41:57;2.40;99.90
23748;DHT22;12054;53.662;10.126;2024-01-15T09:44:23;2.40;99.90
23748;DHT22;12054;53.662;10.126;2024-01-15T09:46:49;2.40;99.90
23748;DHT22;12054;53.662;10.126;2024-01-15T09:49:16;2.40;99.90
23748;DHT22;12054;53.662;10.126;2024-01-15T09:51:42;2.40;99.90
23748;DHT22;12054;53.662;10.126;2024-01-15T09:54:08;2.40;99.90
23748;DHT22;12054;53.662;10.126;2024-01-15T09:56:34;2.50;99.90
23748;DHT22;12054;53.662;10.126;2024-01-15T09:59:01;2.40;99.90
23748;DHT22;12054;53.662;10.126;2024-01-15T10:01:26;2.40;99.90
23748;DHT22;12054;53.662;10.126;2024-01-15T10:03:52;2.40;99.90
23748;DHT22;12054;53.662;10.126;2024-01-15T10:06:18;2.40;99.90
23748;DHT22;12054;53.662;10.126;2024-01-15T10:08:51;2.40;99.90
23748;DHT22;12054;53.662;10.126;2024-01-15T10:11:16;2.40;99.90
23748;DHT22;12054;53.662;10.126;2024-01-15T10:13:48;2.40;99.90
23748;DHT22;12054;53.662;10.126;2024-01-15T10:16:21;2.40;99.90
23748;DHT22;12054;53.662;10.126;2024-01-15T10:18:47;2.30;99.90
23748;DHT22;12054;53.662;10.126;2024-01-15T10:21:13;2.40;99.90
23748;DHT22;12054;53.662;10.126;2024-01-15T10:23:39;2.30;99.90
23748;DHT22;12054;53.662;10.126;2024-01-15T10:26:05;2.30;99.90
23748;DHT22;12054;53.662;10.126;2024-01-15T10:28:30;2.30;99.90
23748;DHT22;12054;53.662;10.126;2024-01-15T10:30:57;2.30;99.90
23748;DHT22;12054;53.662;10.126;2024-01-15T10:33:25;2.30;99.90
23748;DHT22;12054;53.662;10.126;2024-01-15T10:35:57;2.30;99.90
23748;DHT22;12054;53.662;10.126;2024-01-15T10:38:24;2.30;99.90
23748;DHT22;12054;53.662;10.126;2024-01-15T10:40:54;2.30;99.90
23748;DHT22;12054;53.662;10.126;2024-01-15T10:43:21;2.30;99.90
23748;DHT22;12054;53.662;10.126;2024-01-15T10:45:48;2.30;99.90
23748;DHT22;12054;53.662;10.126;2024-01-15T10:48:15;2.40;99.90
23748;DHT22;12054;53.662;10.126;2024-01-15T10:50:41;2.40;99.90
23748;DHT22;12054;53.662;10.126;2024-01-15T10:53:08;2.40;99.90
23748;DHT22;12054;53.662;10.126;2024-01-15T10:55:35;2.40;99.90
23748;DHT22;12054;53.662;10.126;2024-01-15T10:58:03;2.40;99.90
23748;DHT22;12054;53.662;10.126;2024-01-15T11:00:29;2.40;99.90
23748;DHT22;12054;53.662;10.126;2024-01-15T11:02:55;2.40;99.90
23748;DHT22;12054;53.662;10.126;2024-01-15T11:05:22;2.40;99.90
23748;DHT22;12054;53.662;10.126;2024-01-15T11:07:50;2.40;99.90
23748;DHT22;12054;53.662;10.126;2024-01-15T11:10:41;2.40;99.90
23748;DHT22;12054;53.662;10.126;2024-01-15T11:13:20;2.40;99.90
23748;DHT22;12054;53.662;10.126;2024-01-15T11:16:02;2.50;99.90
23748;DHT22;12054;53.662;10.126;2024-01-15T11:21:23;2.50;99.90
23748;DHT22;12054;53.662;10.126;2024-01-15T11:24:00;2.50;99.90
23748;DHT22;12054;53.662;10.126;2024-01-15T11:26:37;2.50;99.90
23748;DHT22;12054;53.662;10.126;2024-01-15T11:29:28;2.50;99.90
23748;DHT22;12054;53.662;10.126;2024-01-15T11:32:03;2.60;99.90
23748;DHT22;12054;53.662;10.126;2024-01-15T11:34:52;2.60;99.90
23748;DHT22;12054;53.662;10.126;2024-01-15T11:37:18;2.60;99.90
23748;DHT22;12054;53.662;10.126;2024-01-15T11:39:44;2.60;99.90
23748;DHT22;12054;53.662;10.126;2024-01-15T11:42:11;2.60;99.90
23748;DHT22;12054;53.662;10.126;2024-01-15T11:44:38;2.60;99.90
23748;DHT22;12054;53.662;10.126;2024-01-15T11:47:05;2.60;99.90
23748;DHT22;12054;53.662;10.126;2024-01-15T11:49:58;2.70;99.90
23748;DHT22;12054;53.662;10.126;2024-01-15T11:52:25;2.70;99.90
23748;DHT22;12054;53.662;10.126;2024-01-15T11:55:00;2.70;99.90
23748;DHT22;12054;53.662;10.126;2024-01-15T12:00:05;2.70;99.90
23748;DHT22;12054;53.662;10.126;2024-01-15T12:02:32;2.70;99.90
23748;DHT22;12054;53.662;10.126;2024-01-15T12:04:57;2.70;99.90
23748;DHT22;12054;53.662;10.126;2024-01-15T12:07:23;2.70;99.90
23748;DHT22;12054;53.662;10.126;2024-01-15T12:09:48;2.70;99.90
23748;DHT22;12054;53.662;10.126;2024-01-15T12:12:24;2.70;99.90
23748;DHT22;12054;53.662;10.126;2024-01-15T12:14:51;2.70;99.90
23748;DHT22;12054;53.662;10.126;2024-01-15T12:17:17;2.70;99.90
23748;DHT22;12054;53.662;10.126;2024-01-15T12:19:43;2.70;99.90
23748;DHT22;12054;53.662;10.126;2024-01-15T12:22:09;2.70;99.90
23748;DHT22;12054;53.662;10.126;2024-01-15T12:24:35;2.70;99.90
23748;DHT22;12054;53.662;10.126;2024-01-15T12:27:01;2.70;99.90
23748;DHT22;12054;53.662;10.126;2024-01-15T12:29:27;2.70;99.90
23748;DHT22;12054;53.662;10.126;2024-01-15T12:31:53;2.80;99.90
23748;DHT22;12054;53.662;10.126;2024-01-15T12:34:19;2.80;99.90
23748;DHT22;12054;53.662;10.126;2024-01-15T12:36:46;2.80;99.90
23748;DHT22;12054;53.662;10.126;2024-01-15T12:39:12;2.80;99.90
23748;DHT22;12054;53.662;10.126;2024-01-15T12:41:38;2.80;99.90
23748;DHT22;12054;53.662;10.126;2024-01-15T12:44:04;2.80;99.90
23748;DHT22;12054;53.662;10.126;2024-01-15T12:46:30;2.80;99.90
23748;DHT22;12054;53.662;10.126;2024-01-15T12:48:56;2.80;99.90
23748;DHT22;12054;53.662;10.126;2024-01-15T12:51:25;2.80;99.90
23748;DHT22;12054;53.662;10.126;2024-01-15T12:53:52;2.80;99.90
23748;DHT22;12054;53.662;10.126;2024-01-15T12:56:17;2.80;99.90
23748;DHT22;12054;53.662;10.126;2024-01-15T12:58:43;2.80;99.90
23748;DHT22;12054;53.662;10.126;2024-01-15T13:01:09;2.70;99.90
23748;DHT22;12054;53.662;10.126;2024-01-15T13:03:34;2.70;99.90
23748;DHT22;12054;53.662;10.126;2024-01-15T13:06:00;2.70;99.90
23748;DHT22;12054;53.662;10.126;2024-01-15T13:08:25;2.70;99.90
23748;DHT22;12054;53.662;10.126;2024-01-15T13:10:53;2.70;99.90
23748;DHT22;12054;53.662;10.126;2024-01-15T13:13:22;2.70;99.90
23748;DHT22;12054;53.662;10.126;2024-01-15T13:15:48;2.70;99.90
23748;DHT22;12054;53.662;10.126;2024-01-15T13:18:14;2.70;99.90
23748;DHT22;12054;53.662;10.126;2024-01-15T13:20:39;2.70;99.90
23748;DHT22;12054;53.662;10.126;2024-01-15T13:23:05;2.70;99.90
23748;DHT22;12054;53.662;10.126;2024-01-15T13:25:31;2.70;99.90
23748;DHT22;12054;53.662;10.126;2024-01-15T13:27:57;2.70;99.90
23748;DHT22;12054;53.662;10.126;2024-01-15T13:30:23;2.70;99.90
23748;DHT22;12054;53.662;10.126;2024-01-15T13:32:48;2.70;99.90
23748;DHT22;12054;53.662;10.126;2024-01-15T13:35:14;2.80;99.90
23748;DHT22;12054;53.662;10.126;2024-01-15T13:37:40;2.80;99.90
23748;DHT22;12054;53.662;10.126;2024-01-15T13:40:07;2.70;99.90
23748;DHT22;12054;53.662;10.126;2024-01-15T13:42:35;2.70;99.90
23748;DHT22;12054;53.662;10.126;2024-01-15T13:45:04;2.80;99.90
23748;DHT22;12054;53.662;10.126;2024-01-15T13:47:31;2.70;99.90
